createdAt,value
2022-08-28T00:00:46.611Z,101439.53
2022-08-28T00:03:17.523Z,101433.03
2022-08-28T00:05:46.700Z,101442.22
2022-08-28T00:08:17.143Z,101433.56
2022-08-28T00:10:46.673Z,101439.09
2022-08-28T00:13:18.975Z,101443.16
2022-08-28T00:15:50.466Z,101441.97
2022-08-28T00:18:20.717Z,101445.13
2022-08-28T00:20:51.014Z,101450.91
2022-08-28T00:23:20.507Z,101448.19
2022-08-28T00:25:49.164Z,101443.13
2022-08-28T00:28:24.232Z,101441.75
2022-08-28T00:30:55.279Z,101447.00
2022-08-28T00:33:28.314Z,101452.78
2022-08-28T00:35:58.380Z,101453.75
2022-08-28T00:38:28.483Z,101449.94
2022-08-28T00:41:00.386Z,101453.78
2022-08-28T00:43:36.857Z,101457.94
2022-08-28T00:46:11.118Z,101450.44
2022-08-28T00:48:41.119Z,101458.50
2022-08-28T00:51:28.551Z,101454.22
2022-08-28T00:53:59.176Z,101452.75
2022-08-28T00:56:29.057Z,101455.38
2022-08-28T00:58:59.938Z,101450.47
2022-08-28T01:01:28.722Z,101447.88
2022-08-28T01:03:58.750Z,101454.72
2022-08-28T01:06:27.382Z,101458.19
2022-08-28T01:08:56.066Z,101459.00
2022-08-28T01:11:29.096Z,101460.56
2022-08-28T01:14:01.961Z,101463.22
2022-08-28T01:16:34.007Z,101466.41
2022-08-28T01:19:08.103Z,101472.25
2022-08-28T01:21:46.735Z,101468.38
2022-08-28T01:24:19.606Z,101466.19
2022-08-28T01:26:48.387Z,101475.03
2022-08-28T01:29:17.422Z,101468.00
2022-08-28T01:31:48.529Z,101459.88
2022-08-28T01:34:17.158Z,101466.59
2022-08-28T01:36:48.551Z,101463.31
2022-08-28T01:39:21.282Z,101467.09
2022-08-28T01:41:52.961Z,101466.56
2022-08-28T01:44:24.857Z,101463.66
2022-08-28T01:46:55.508Z,101465.97
2022-08-28T01:49:24.789Z,101475.47
2022-08-28T01:51:54.746Z,101473.84
2022-08-28T01:54:28.813Z,101473.94
2022-08-28T01:56:57.550Z,101462.09
2022-08-28T01:59:26.177Z,101470.00
2022-08-28T02:01:55.458Z,101467.28
2022-08-28T02:04:32.244Z,101473.00
2022-08-28T02:07:01.155Z,101468.00
2022-08-28T02:09:32.027Z,101468.44
2022-08-28T02:12:00.725Z,101467.25
2022-08-28T02:14:29.362Z,101476.78
2022-08-28T02:16:58.762Z,101473.50
2022-08-28T02:19:27.344Z,101476.31
2022-08-28T02:21:55.961Z,101482.34
2022-08-28T02:24:24.730Z,101474.28
2022-08-28T02:26:54.758Z,101479.34
2022-08-28T02:29:23.627Z,101482.34
2022-08-28T02:31:52.313Z,101483.44
2022-08-28T02:34:21.141Z,101480.03
2022-08-28T02:36:50.071Z,101481.72
2022-08-28T02:39:18.681Z,101484.56
2022-08-28T02:41:47.283Z,101488.19
2022-08-28T02:44:17.398Z,101486.88
2022-08-28T02:46:46.292Z,101491.34
2022-08-28T02:49:14.868Z,101493.84
2022-08-28T02:51:44.178Z,101498.13
2022-08-28T02:54:12.774Z,101488.03
2022-08-28T02:56:43.450Z,101489.41
2022-08-28T02:59:13.478Z,101482.97
2022-08-28T03:01:43.458Z,101480.25
2022-08-28T03:04:12.070Z,101478.59
2022-08-28T03:06:40.988Z,101476.78
2022-08-28T03:09:09.559Z,101476.97
2022-08-28T03:11:38.227Z,101470.75
2022-08-28T03:14:06.876Z,101469.44
2022-08-28T03:16:35.541Z,101468.16
2022-08-28T03:19:05.577Z,101463.94
2022-08-28T03:21:34.204Z,101479.94
2022-08-28T03:24:02.913Z,101481.88
2022-08-28T03:26:31.959Z,101486.47
2022-08-28T03:29:00.531Z,101498.25
2022-08-28T03:31:33.340Z,101500.41
2022-08-28T03:34:04.743Z,101509.53
2022-08-28T03:36:34.290Z,101507.53
2022-08-28T03:39:06.471Z,101512.16
2022-08-28T03:41:35.711Z,101511.25
2022-08-28T03:44:05.096Z,101506.22
2022-08-28T03:46:34.615Z,101508.16
2022-08-28T03:49:06.006Z,101511.34
2022-08-28T03:51:35.920Z,101504.03
2022-08-28T03:54:05.463Z,101511.09
2022-08-28T03:56:34.487Z,101509.75
2022-08-28T03:59:05.476Z,101514.56
2022-08-28T04:01:34.643Z,101523.34
2022-08-28T04:04:03.468Z,101517.50
2022-08-28T04:06:33.496Z,101520.56
2022-08-28T04:09:04.970Z,101524.22
2022-08-28T04:11:38.206Z,101529.19
2022-08-28T04:14:07.118Z,101528.50
2022-08-28T04:16:35.795Z,101526.28
2022-08-28T04:19:04.680Z,101521.47
2022-08-28T04:21:34.667Z,101529.75
2022-08-28T04:24:06.719Z,101531.97
2022-08-28T04:26:37.960Z,101536.63
2022-08-28T04:29:06.996Z,101544.41
2022-08-28T04:31:36.340Z,101537.28
2022-08-28T04:34:08.718Z,101543.56
2022-08-28T04:36:39.336Z,101544.97
2022-08-28T04:39:10.308Z,101548.28
2022-08-28T04:41:39.199Z,101541.16
2022-08-28T04:44:08.313Z,101554.09
2022-08-28T04:46:37.591Z,101543.19
2022-08-28T04:49:06.932Z,101549.34
2022-08-28T04:51:41.510Z,101551.03
2022-08-28T04:54:11.907Z,101550.34
2022-08-28T04:56:42.100Z,101561.66
2022-08-28T04:59:11.738Z,101561.81
2022-08-28T05:01:42.679Z,101558.38
2022-08-28T05:04:13.108Z,101549.03
2022-08-28T05:06:46.264Z,101554.28
2022-08-28T05:09:18.795Z,101558.81
2022-08-28T05:11:48.174Z,101561.88
2022-08-28T05:14:17.842Z,101560.47
2022-08-28T05:16:49.210Z,101564.50
2022-08-28T05:19:19.525Z,101566.63
2022-08-28T05:21:49.809Z,101569.59
2022-08-28T05:24:18.718Z,101582.75
2022-08-28T05:26:48.062Z,101584.34
2022-08-28T05:29:17.888Z,101582.47
2022-08-28T05:31:47.759Z,101582.69
2022-08-28T05:34:17.823Z,101586.25
2022-08-28T05:36:46.397Z,101586.75
2022-08-28T05:39:17.616Z,101584.41
2022-08-28T05:41:47.714Z,101587.41
2022-08-28T05:44:18.222Z,101586.88
2022-08-28T05:46:48.564Z,101588.81
2022-08-28T05:49:19.522Z,101589.03
2022-08-28T05:51:49.567Z,101592.13
2022-08-28T05:54:19.601Z,101599.38
2022-08-28T05:56:48.474Z,101595.91
2022-08-28T05:59:17.934Z,101597.69
2022-08-28T06:01:48.647Z,101593.97
2022-08-28T06:04:23.461Z,101593.66
2022-08-28T06:06:52.121Z,101604.47
2022-08-28T06:09:28.994Z,101603.09
2022-08-28T06:11:59.846Z,101605.34
2022-08-28T06:14:29.803Z,101612.25
2022-08-28T06:16:59.737Z,101609.06
2022-08-28T06:19:30.814Z,101606.44
2022-08-28T06:22:01.566Z,101611.75
2022-08-28T06:24:37.932Z,101614.34
2022-08-28T06:27:07.000Z,101609.59
2022-08-28T06:29:35.659Z,101607.97
2022-08-28T06:32:05.581Z,101611.81
2022-08-28T06:34:34.264Z,101614.72
2022-08-28T06:37:02.830Z,101614.44
2022-08-28T06:39:31.479Z,101628.34
2022-08-28T06:42:01.399Z,101626.34
2022-08-28T06:44:32.170Z,101629.13
2022-08-28T06:47:00.820Z,101622.59
2022-08-28T06:49:29.478Z,101626.63
2022-08-28T06:51:58.072Z,101626.03
2022-08-28T06:54:26.785Z,101634.34
2022-08-28T06:56:55.369Z,101632.34
2022-08-28T06:59:25.316Z,101637.84
2022-08-28T07:01:54.487Z,101627.31
2022-08-28T07:04:23.257Z,101632.38
2022-08-28T07:06:54.483Z,101629.22
2022-08-28T07:09:24.125Z,101636.38
2022-08-28T07:11:52.934Z,101632.06
2022-08-28T07:14:21.565Z,101631.28
2022-08-28T07:16:51.868Z,101638.28
2022-08-28T07:19:20.614Z,101639.53
2022-08-28T07:21:49.167Z,101646.63
2022-08-28T07:24:19.137Z,101645.88
2022-08-28T07:26:48.598Z,101649.75
2022-08-28T07:29:17.422Z,101645.25
2022-08-28T07:31:49.160Z,101653.16
2022-08-28T07:34:21.170Z,101646.13
2022-08-28T07:36:51.924Z,101650.34
2022-08-28T07:39:20.537Z,101643.00
2022-08-28T07:41:50.350Z,101657.06
2022-08-28T07:44:36.553Z,101654.25
2022-08-28T07:47:06.980Z,101649.13
2022-08-28T07:49:40.116Z,101661.41
2022-08-28T07:52:09.788Z,101670.19
2022-08-28T07:54:40.576Z,101667.88
2022-08-28T07:57:10.981Z,101660.72
2022-08-28T07:59:42.966Z,101666.44
2022-08-28T08:02:11.961Z,101667.63
2022-08-28T08:04:42.589Z,101666.16
2022-08-28T08:07:12.931Z,101671.00
2022-08-28T08:09:43.150Z,101667.72
2022-08-28T08:12:13.545Z,101662.66
2022-08-28T08:14:43.753Z,101666.00
2022-08-28T08:17:13.098Z,101659.25
2022-08-28T08:19:43.072Z,101669.13
2022-08-28T08:22:11.641Z,101670.00
2022-08-28T08:24:40.269Z,101670.03
2022-08-28T08:27:10.523Z,101677.19
2022-08-28T08:29:39.848Z,101674.06
2022-08-28T08:32:11.609Z,101680.63
2022-08-28T08:34:43.659Z,101682.75
2022-08-28T08:37:13.615Z,101675.59
2022-08-28T08:39:44.041Z,101668.00
2022-08-28T08:42:23.115Z,101672.84
2022-08-28T08:44:53.813Z,101671.22
2022-08-28T08:47:27.614Z,101672.84
2022-08-28T08:50:01.031Z,101675.34
2022-08-28T08:52:39.046Z,101675.28
2022-08-28T08:55:20.475Z,101679.09
2022-08-28T08:57:54.468Z,101681.41
2022-08-28T09:00:23.303Z,101683.38
2022-08-28T09:03:00.114Z,101684.25
2022-08-28T09:05:45.286Z,101679.69
2022-08-28T09:08:28.519Z,101689.03
2022-08-28T09:11:03.989Z,101677.38
2022-08-28T09:13:42.332Z,101668.53
2022-08-28T09:16:22.343Z,101684.72
2022-08-28T09:18:52.343Z,101672.81
2022-08-28T09:21:31.974Z,101674.81
2022-08-28T09:24:05.912Z,101673.78
2022-08-28T09:26:40.871Z,101681.72
2022-08-28T09:29:17.745Z,101683.50
2022-08-28T09:31:46.687Z,101680.16
2022-08-28T09:34:22.885Z,101692.69
2022-08-28T09:36:54.002Z,101691.00
2022-08-28T09:39:25.150Z,101690.66
2022-08-28T09:42:23.253Z,101694.03
2022-08-28T09:44:56.534Z,101691.88
2022-08-28T09:47:46.011Z,101692.28
2022-08-28T09:50:35.226Z,101685.44
2022-08-28T09:53:23.005Z,101687.25
2022-08-28T09:55:59.174Z,101682.63
2022-08-28T09:58:34.859Z,101684.66
2022-08-28T10:01:22.154Z,101687.97
2022-08-28T10:04:02.612Z,101686.81
2022-08-28T10:06:37.082Z,101689.94
2022-08-28T10:09:14.522Z,101678.31
2022-08-28T10:11:51.244Z,101676.56
2022-08-28T10:14:32.821Z,101677.94
2022-08-28T10:17:11.104Z,101678.06
2022-08-28T10:19:50.967Z,101675.81
2022-08-28T10:22:32.928Z,101674.84
2022-08-28T10:25:14.666Z,101668.34
2022-08-28T10:27:55.151Z,101665.78
2022-08-28T10:30:25.675Z,101659.78
2022-08-28T10:33:21.421Z,101664.22
2022-08-28T10:35:57.251Z,101673.94
2022-08-28T10:38:37.277Z,101668.84
2022-08-28T10:41:12.158Z,101665.78
2022-08-28T10:43:48.134Z,101672.13
2022-08-28T10:46:23.150Z,101664.97
2022-08-28T10:49:00.082Z,101669.53
2022-08-28T10:51:36.304Z,101658.69
2022-08-28T10:54:19.177Z,101667.03
2022-08-28T10:56:56.897Z,101666.78
2022-08-28T10:59:27.509Z,101667.25
2022-08-28T11:01:56.558Z,101667.16
2022-08-28T11:04:29.309Z,101677.41
2022-08-28T11:07:02.244Z,101657.69
2022-08-28T11:09:34.805Z,101664.31
2022-08-28T11:12:09.748Z,101664.50
2022-08-28T11:14:47.757Z,101664.72
2022-08-28T11:17:40.203Z,101667.72
2022-08-28T11:20:16.544Z,101662.47
2022-08-28T11:22:48.641Z,101681.59
2022-08-28T11:25:26.465Z,101675.41
2022-08-28T11:28:43.266Z,101671.31
2022-08-28T11:31:37.636Z,101673.44
2022-08-28T11:34:06.360Z,101671.13
2022-08-28T11:37:02.858Z,101676.16
2022-08-28T11:39:31.723Z,101662.25
2022-08-28T11:42:37.700Z,101670.19
2022-08-28T11:45:08.384Z,101667.72
2022-08-28T11:47:56.346Z,101666.78
2022-08-28T11:50:32.197Z,101661.53
2022-08-28T11:53:36.072Z,101667.97
2022-08-28T11:56:30.965Z,101657.13
2022-08-28T11:59:25.376Z,101654.22
2022-08-28T12:02:37.309Z,101663.16
2022-08-28T12:05:09.769Z,101653.41
2022-08-28T12:07:40.300Z,101652.34
2022-08-28T12:10:58.539Z,101650.13
2022-08-28T12:13:50.185Z,101655.22
2022-08-28T12:16:19.738Z,101658.63
2022-08-28T12:19:01.295Z,101657.59
2022-08-28T12:21:36.524Z,101660.66
2022-08-28T12:24:14.688Z,101654.56
2022-08-28T12:26:48.807Z,101653.47
2022-08-28T12:29:32.941Z,101637.22
2022-08-28T12:32:28.662Z,101644.56
2022-08-28T12:35:19.349Z,101638.97
2022-08-28T12:38:02.626Z,101632.16
2022-08-28T12:40:47.461Z,101628.34
2022-08-28T12:43:29.102Z,101620.91
2022-08-28T12:46:00.712Z,101637.88
2022-08-28T12:48:32.396Z,101628.28
2022-08-28T12:51:04.819Z,101638.47
2022-08-28T12:53:45.032Z,101633.97
2022-08-28T12:56:15.819Z,101645.31
2022-08-28T12:58:44.976Z,101629.00
2022-08-28T13:01:24.327Z,101626.94
2022-08-28T13:03:55.774Z,101634.03
2022-08-28T13:06:26.557Z,101616.66
2022-08-28T13:09:02.523Z,101630.22
2022-08-28T13:11:35.322Z,101618.06
2022-08-28T13:14:05.488Z,101630.06
2022-08-28T13:16:41.158Z,101618.59
2022-08-28T13:19:25.178Z,101626.34
2022-08-28T13:21:58.898Z,101612.38
2022-08-28T13:24:43.883Z,101609.53
2022-08-28T13:27:22.931Z,101603.69
2022-08-28T13:29:59.997Z,101611.53
2022-08-28T13:32:31.368Z,101604.22
2022-08-28T13:35:29.194Z,101623.56
2022-08-28T13:37:59.905Z,101619.44
2022-08-28T13:43:24.243Z,101599.94
2022-08-28T13:45:53.395Z,101600.31
2022-08-28T13:48:24.620Z,101608.47
2022-08-28T13:50:55.998Z,101603.72
2022-08-28T13:53:25.344Z,101608.47
2022-08-28T13:55:55.875Z,101599.91
2022-08-28T13:58:24.723Z,101599.09
2022-08-28T14:00:53.935Z,101592.84
2022-08-28T14:03:38.260Z,101601.44
2022-08-28T14:06:11.331Z,101598.63
2022-08-28T14:08:40.845Z,101603.28
2022-08-28T14:11:12.777Z,101590.00
2022-08-28T14:13:47.012Z,101585.50
2022-08-28T14:16:25.576Z,101580.47
2022-08-28T14:18:54.368Z,101575.75
2022-08-28T14:21:24.502Z,101577.44
2022-08-28T14:23:53.435Z,101568.88
2022-08-28T14:26:23.391Z,101584.75
2022-08-28T14:28:51.962Z,101578.50
2022-08-28T14:31:20.645Z,101579.41
2022-08-28T14:33:55.474Z,101578.72
2022-08-28T14:36:26.621Z,101572.38
2022-08-28T14:38:56.513Z,101576.88
2022-08-28T14:41:27.434Z,101572.75
2022-08-28T14:43:57.180Z,101563.00
2022-08-28T14:46:28.641Z,101564.66
2022-08-28T14:48:58.455Z,101573.06
2022-08-28T14:51:27.534Z,101577.50
2022-08-28T14:53:56.106Z,101565.19
2022-08-28T14:56:26.102Z,101568.84
2022-08-28T14:58:54.701Z,101562.84
2022-08-28T15:01:24.525Z,101559.78
2022-08-28T15:03:55.220Z,101563.19
2022-08-28T15:06:24.057Z,101571.69
2022-08-28T15:08:54.064Z,101567.81
2022-08-28T15:11:26.110Z,101576.59
2022-08-28T15:13:55.625Z,101576.13
2022-08-28T15:16:29.862Z,101577.13
2022-08-28T15:19:00.092Z,101579.50
2022-08-28T15:21:32.230Z,101583.22
2022-08-28T15:24:02.822Z,101587.00
2022-08-28T15:26:33.476Z,101578.66
2022-08-28T15:29:03.315Z,101581.50
2022-08-28T15:31:33.283Z,101573.75
2022-08-28T15:34:06.373Z,101567.19
2022-08-28T15:36:42.477Z,101572.13
2022-08-28T15:39:29.100Z,101558.22
2022-08-28T15:42:00.474Z,101563.38
2022-08-28T15:44:29.476Z,101566.25
2022-08-28T15:47:01.080Z,101557.78
2022-08-28T15:49:32.262Z,101562.00
2022-08-28T15:52:05.452Z,101561.88
2022-08-28T15:54:34.019Z,101563.16
2022-08-28T15:57:03.999Z,101562.84
2022-08-28T15:59:38.046Z,101553.09
2022-08-28T16:02:18.150Z,101547.81
2022-08-28T16:04:46.826Z,101549.75
2022-08-28T16:07:15.415Z,101558.91
2022-08-28T16:09:43.982Z,101560.81
2022-08-28T16:12:14.025Z,101558.47
2022-08-28T16:14:42.632Z,101560.44
2022-08-28T16:17:11.769Z,101551.38
2022-08-28T16:19:40.874Z,101556.31
2022-08-28T16:22:10.162Z,101557.47
2022-08-28T16:24:38.976Z,101552.53
2022-08-28T16:27:10.695Z,101546.72
2022-08-28T16:29:45.064Z,101561.06
2022-08-28T16:32:13.846Z,101563.91
2022-08-28T16:34:44.807Z,101554.88
2022-08-28T16:37:16.639Z,101564.94
2022-08-28T16:39:49.620Z,101567.31
2022-08-28T16:42:18.214Z,101565.78
2022-08-28T16:44:48.160Z,101550.03
2022-08-28T16:47:17.030Z,101558.50
2022-08-28T16:49:45.596Z,101559.16
2022-08-28T16:52:14.208Z,101552.16
2022-08-28T16:54:48.419Z,101548.63
2022-08-28T16:57:17.557Z,101553.13
2022-08-28T16:59:47.912Z,101549.00
2022-08-28T17:02:26.601Z,101557.44
2022-08-28T17:04:58.149Z,101564.88
2022-08-28T17:07:27.222Z,101550.16
2022-08-28T17:09:55.830Z,101556.84
2022-08-28T17:12:24.605Z,101551.91
2022-08-28T17:14:56.406Z,101553.03
2022-08-28T17:17:25.421Z,101555.91
2022-08-28T17:19:54.105Z,101549.50
2022-08-28T17:22:33.536Z,101564.81
2022-08-28T17:25:03.984Z,101566.16
2022-08-28T17:27:33.161Z,101565.81
2022-08-28T17:30:04.926Z,101567.81
2022-08-28T17:32:33.879Z,101562.16
2022-08-28T17:35:03.290Z,101563.88
2022-08-28T17:37:31.931Z,101570.25
2022-08-28T17:40:00.561Z,101568.06
2022-08-28T17:42:29.229Z,101570.88
2022-08-28T17:44:57.801Z,101573.69
2022-08-28T17:47:31.007Z,101566.88
2022-08-28T17:50:00.182Z,101574.19
2022-08-28T17:52:29.596Z,101576.59
2022-08-28T17:54:58.251Z,101581.38
2022-08-28T17:57:28.758Z,101581.28
2022-08-28T17:59:57.747Z,101589.50
2022-08-28T18:02:28.918Z,101589.69
2022-08-28T18:04:57.603Z,101581.91
2022-08-28T18:07:26.301Z,101582.31
2022-08-28T18:09:54.939Z,101584.38
2022-08-28T18:12:23.573Z,101590.28
2022-08-28T18:14:53.159Z,101593.69
2022-08-28T18:17:21.825Z,101594.19
2022-08-28T18:19:51.890Z,101590.09
2022-08-28T18:22:20.448Z,101583.97
2022-08-28T18:24:53.594Z,101597.22
2022-08-28T18:27:22.753Z,101594.09
2022-08-28T18:29:51.871Z,101596.19
2022-08-28T18:32:20.693Z,101603.66
2022-08-28T18:34:50.655Z,101610.13
2022-08-28T18:37:19.496Z,101609.44
2022-08-28T18:39:48.038Z,101614.09
2022-08-28T18:42:20.257Z,101612.66
2022-08-28T18:44:48.830Z,101617.22
2022-08-28T18:47:17.910Z,101618.22
2022-08-28T18:49:46.599Z,101626.69
2022-08-28T18:52:16.564Z,101626.78
2022-08-28T18:54:45.135Z,101631.22
2022-08-28T18:57:15.165Z,101635.75
2022-08-28T18:59:43.835Z,101639.38
2022-08-28T19:02:13.598Z,101635.53
2022-08-28T19:04:42.733Z,101635.47
2022-08-28T19:07:11.488Z,101638.00
2022-08-28T19:09:41.964Z,101641.94
2022-08-28T19:12:10.715Z,101648.66
2022-08-28T19:14:39.316Z,101652.59
2022-08-28T19:17:07.890Z,101652.00
2022-08-28T19:19:36.947Z,101652.84
2022-08-28T19:22:05.603Z,101657.63
2022-08-28T19:24:34.708Z,101662.91
2022-08-28T19:27:04.724Z,101663.81
2022-08-28T19:29:33.926Z,101663.19
2022-08-28T19:32:02.701Z,101659.03
2022-08-28T19:34:32.232Z,101673.91
2022-08-28T19:37:01.609Z,101676.97
2022-08-28T19:39:30.778Z,101675.88
2022-08-28T19:41:59.406Z,101681.72
2022-08-28T19:44:29.373Z,101688.19
2022-08-28T19:46:57.957Z,101681.34
2022-08-28T19:49:26.644Z,101695.50
2022-08-28T19:51:55.413Z,101689.78
2022-08-28T19:54:24.000Z,101691.47
2022-08-28T19:56:52.605Z,101689.66
2022-08-28T19:59:24.001Z,101705.28
2022-08-28T20:01:56.993Z,101691.31
2022-08-28T20:04:26.064Z,101691.00
2022-08-28T20:06:54.814Z,101689.34
2022-08-28T20:09:23.959Z,101703.59
2022-08-28T20:11:52.579Z,101696.47
2022-08-28T20:14:21.935Z,101690.91
2022-08-28T20:16:52.299Z,101702.66
2022-08-28T20:19:23.454Z,101707.13
2022-08-28T20:21:52.148Z,101712.78
2022-08-28T20:24:24.093Z,101709.06
2022-08-28T20:26:53.952Z,101717.06
2022-08-28T20:29:24.228Z,101721.28
2022-08-28T20:31:53.184Z,101725.66
2022-08-28T20:34:23.273Z,101719.38
2022-08-28T20:36:52.358Z,101717.69
2022-08-28T20:39:21.460Z,101717.78
2022-08-28T20:41:50.418Z,101718.59
2022-08-28T20:44:21.269Z,101718.75
2022-08-28T20:46:51.376Z,101734.09
2022-08-28T20:49:22.974Z,101733.97
2022-08-28T20:51:56.901Z,101740.31
2022-08-28T20:54:29.703Z,101734.41
2022-08-28T20:57:00.224Z,101743.38
2022-08-28T20:59:37.188Z,101734.34
2022-08-28T21:02:11.194Z,101740.56
2022-08-28T21:04:42.943Z,101738.47
2022-08-28T21:07:12.552Z,101743.56
2022-08-28T21:10:06.137Z,101743.56
2022-08-28T21:12:30.115Z,101753.06
2022-08-28T21:14:58.768Z,101749.69
2022-08-28T21:17:30.127Z,101753.56
2022-08-28T21:20:02.777Z,101755.31
2022-08-28T21:22:33.049Z,101752.94
2022-08-28T21:25:04.850Z,101760.88
2022-08-28T21:27:33.801Z,101764.53
2022-08-28T21:30:03.141Z,101761.06
2022-08-28T21:32:33.958Z,101760.66
2022-08-28T21:35:05.401Z,101761.19
2022-08-28T21:37:34.210Z,101766.97
2022-08-28T21:40:03.890Z,101769.03
2022-08-28T21:42:32.585Z,101770.34
2022-08-28T21:45:01.678Z,101770.47
2022-08-28T21:47:31.871Z,101774.09
2022-08-28T21:50:00.582Z,101767.38
2022-08-28T21:52:32.570Z,101778.53
2022-08-28T21:55:02.860Z,101770.47
2022-08-28T21:57:32.207Z,101778.28
2022-08-28T22:00:00.803Z,101779.34
2022-08-28T22:02:29.644Z,101786.47
2022-08-28T22:04:58.289Z,101776.28
2022-08-28T22:07:26.949Z,101771.59
2022-08-28T22:09:56.968Z,101776.66
2022-08-28T22:12:25.616Z,101775.13
2022-08-28T22:14:54.262Z,101776.09
2022-08-28T22:17:22.878Z,101779.69
2022-08-28T22:19:51.481Z,101775.53
2022-08-28T22:22:37.934Z,101778.53
2022-08-28T22:25:09.077Z,101772.88
2022-08-28T22:27:37.716Z,101769.63
2022-08-28T22:30:06.922Z,101774.06
2022-08-28T22:32:35.573Z,101779.38
2022-08-28T22:35:04.307Z,101779.66
2022-08-28T22:37:33.076Z,101780.09
2022-08-28T22:40:01.826Z,101775.41
2022-08-28T22:42:33.974Z,101777.09
2022-08-28T22:45:02.931Z,101774.41
2022-08-28T22:47:32.026Z,101769.91
2022-08-28T22:50:01.135Z,101771.59
2022-08-28T22:52:30.022Z,101775.78
2022-08-28T22:54:58.841Z,101769.63
2022-08-28T22:57:27.917Z,101768.47
2022-08-28T23:00:01.458Z,101775.53
2022-08-28T23:02:30.432Z,101771.59
2022-08-28T23:04:59.058Z,101775.78
2022-08-28T23:07:27.678Z,101770.44
2022-08-28T23:09:56.305Z,101776.03
2022-08-28T23:12:25.193Z,101771.16
2022-08-28T23:14:53.812Z,101773.28
2022-08-28T23:17:24.341Z,101773.28
2022-08-28T23:19:53.459Z,101780.84
2022-08-28T23:22:22.040Z,101775.66
2022-08-28T23:24:50.717Z,101777.50
2022-08-28T23:27:35.757Z,101771.56
2022-08-28T23:30:07.286Z,101771.78
2022-08-28T23:32:37.563Z,101765.94
2022-08-28T23:35:09.647Z,101778.84
2022-08-28T23:37:39.475Z,101775.25
2022-08-28T23:40:11.270Z,101762.34
2022-08-28T23:42:41.013Z,101756.66
2022-08-28T23:45:10.506Z,101752.16
2022-08-28T23:47:40.870Z,101746.03
2022-08-28T23:50:12.711Z,101754.47
2022-08-28T23:52:43.158Z,101755.88
2022-08-28T23:55:14.432Z,101758.91
2022-08-28T23:57:43.163Z,101764.22
